sensor_id;sensor_type;location;lat;lon;timestamp;temperature;humidity
38798;SHT11;24546;52.240;16.826;2023-04-03T00:00:02;1.90;99.90
38798;SHT11;24546;52.240;16.826;2023-04-03T00:05:07;2.00;99.90
38798;SHT11;24546;52.240;16.826;2023-04-03T00:10:08;2.00;99.90
38798;SHT11;24546;52.240;16.826;2023-04-03T00:15:09;1.80;99.90
38798;SHT11;24546;52.240;16.826;2023-04-03T00:20:10;1.80;99.90
38798;SHT11;24546;52.240;16.826;2023-04-03T00:25:10;2.00;99.90
38798;SHT11;24546;52.240;16.826;2023-04-03T00:30:13;2.10;99.90
38798;SHT11;24546;52.240;16.826;2023-04-03T00:35:14;1.90;99.90
38798;SHT11;24546;52.240;16.826;2023-04-03T00:40:16;1.70;99.90
38798;SHT11;24546;52.240;16.826;2023-04-03T00:45:29;1.80;99.90
38798;SHT11;24546;52.240;16.826;2023-04-03T00:50:30;1.70;99.90
38798;SHT11;24546;52.240;16.826;2023-04-03T00:55:31;1.80;99.90
38798;SHT11;24546;52.240;16.826;2023-04-03T01:00:32;1.70;99.90
38798;SHT11;24546;52.240;16.826;2023-04-03T01:05:34;1.70;99.90
38798;SHT11;24546;52.240;16.826;2023-04-03T01:10:35;1.50;99.90
38798;SHT11;24546;52.240;16.826;2023-04-03T01:15:36;1.50;99.90
38798;SHT11;24546;52.240;16.826;2023-04-03T01:20:43;1.50;99.90
38798;SHT11;24546;52.240;16.826;2023-04-03T01:25:50;1.30;99.90
38798;SHT11;24546;52.240;16.826;2023-04-03T01:36:04;1.30;99.90
38798;SHT11;24546;52.240;16.826;2023-04-03T01:41:07;1.40;99.90
38798;SHT11;24546;52.240;16.826;2023-04-03T01:46:08;1.40;99.90
38798;SHT11;24546;52.240;16.826;2023-04-03T01:51:09;1.40;99.90
38798;SHT11;24546;52.240;16.826;2023-04-03T01:56:09;1.50;99.90
38798;SHT11;24546;52.240;16.826;2023-04-03T02:01:10;1.40;99.90
38798;SHT11;24546;52.240;16.826;2023-04-03T02:06:11;1.40;99.90
38798;SHT11;24546;52.240;16.826;2023-04-03T02:11:12;1.40;99.90
38798;SHT11;24546;52.240;16.826;2023-04-03T02:16:13;1.20;99.90
38798;SHT11;24546;52.240;16.826;2023-04-03T02:21:14;1.40;99.90
38798;SHT11;24546;52.240;16.826;2023-04-03T02:26:15;1.40;99.90
38798;SHT11;24546;52.240;16.826;2023-04-03T02:31:19;1.20;99.90
38798;SHT11;24546;52.240;16.826;2023-04-03T02:36:21;1.20;99.90
38798;SHT11;24546;52.240;16.826;2023-04-03T02:41:27;1.10;99.90
38798;SHT11;24546;52.240;16.826;2023-04-03T02:46:34;1.00;99.90
38798;SHT11;24546;52.240;16.826;2023-04-03T02:51:36;0.80;99.90
38798;SHT11;24546;52.240;16.826;2023-04-03T02:56:37;0.70;99.90
38798;SHT11;24546;52.240;16.826;2023-04-03T03:01:38;0.80;99.90
38798;SHT11;24546;52.240;16.826;2023-04-03T03:06:39;0.70;99.90
38798;SHT11;24546;52.240;16.826;2023-04-03T03:11:40;0.90;99.90
38798;SHT11;24546;52.240;16.826;2023-04-03T03:16:41;0.90;99.90
38798;SHT11;24546;52.240;16.826;2023-04-03T03:21:43;0.80;99.90
38798;SHT11;24546;52.240;16.826;2023-04-03T03:26:43;0.90;99.90
38798;SHT11;24546;52.240;16.826;2023-04-03T03:31:45;0.90;99.90
38798;SHT11;24546;52.240;16.826;2023-04-03T03:36:46;0.80;99.90
38798;SHT11;24546;52.240;16.826;2023-04-03T03:41:47;0.80;99.90
38798;SHT11;24546;52.240;16.826;2023-04-03T03:46:50;0.90;99.90
38798;SHT11;24546;52.240;16.826;2023-04-03T03:51:51;0.80;99.90
38798;SHT11;24546;52.240;16.826;2023-04-03T03:56:52;0.80;99.90
38798;SHT11;24546;52.240;16.826;2023-04-03T04:01:53;0.90;99.90
38798;SHT11;24546;52.240;16.826;2023-04-03T04:06:54;0.70;99.90
38798;SHT11;24546;52.240;16.826;2023-04-03T04:11:55;0.50;99.90
38798;SHT11;24546;52.240;16.826;2023-04-03T04:16:56;0.40;99.90
38798;SHT11;24546;52.240;16.826;2023-04-03T04:22:00;0.50;99.90
38798;SHT11;24546;52.240;16.826;2023-04-03T04:27:01;0.40;99.90
38798;SHT11;24546;52.240;16.826;2023-04-03T04:32:03;0.50;99.90
38798;SHT11;24546;52.240;16.826;2023-04-03T04:37:04;0.40;99.90
38798;SHT11;24546;52.240;16.826;2023-04-03T04:42:06;0.40;99.90
38798;SHT11;24546;52.240;16.826;2023-04-03T04:47:08;0.40;99.90
38798;SHT11;24546;52.240;16.826;2023-04-03T04:52:09;0.50;99.90
38798;SHT11;24546;52.240;16.826;2023-04-03T04:57:11;0.60;99.90
38798;SHT11;24546;52.240;16.826;2023-04-03T05:02:12;0.50;99.90
38798;SHT11;24546;52.240;16.826;2023-04-03T05:07:16;0.70;99.90
38798;SHT11;24546;52.240;16.826;2023-04-03T05:12:17;1.00;99.90
38798;SHT11;24546;52.240;16.826;2023-04-03T05:17:24;1.00;99.90
38798;SHT11;24546;52.240;16.826;2023-04-03T05:22:28;1.10;99.90
38798;SHT11;24546;52.240;16.826;2023-04-03T05:27:33;1.40;99.90
38798;SHT11;24546;52.240;16.826;2023-04-03T05:32:34;1.90;99.90
38798;SHT11;24546;52.240;16.826;2023-04-03T05:37:57;2.00;99.90
38798;SHT11;24546;52.240;16.826;2023-04-03T05:42:58;1.90;99.90
38798;SHT11;24546;52.240;16.826;2023-04-03T05:48:03;2.00;99.90
38798;SHT11;24546;52.240;16.826;2023-04-03T05:53:05;2.50;99.90
38798;SHT11;24546;52.240;16.826;2023-04-03T05:58:07;2.80;99.90
38798;SHT11;24546;52.240;16.826;2023-04-03T06:03:08;2.70;99.90
38798;SHT11;24546;52.240;16.826;2023-04-03T06:08:09;2.70;99.90
38798;SHT11;24546;52.240;16.826;2023-04-03T06:13:10;3.20;99.90
38798;SHT11;24546;52.240;16.826;2023-04-03T06:18:11;3.40;99.90
38798;SHT11;24546;52.240;16.826;2023-04-03T06:23:12;3.40;99.90
38798;SHT11;24546;52.240;16.826;2023-04-03T06:28:13;3.60;99.90
38798;SHT11;24546;52.240;16.826;2023-04-03T06:33:14;4.20;99.90
38798;SHT11;24546;52.240;16.826;2023-04-03T06:38:15;4.20;99.90
38798;SHT11;24546;52.240;16.826;2023-04-03T06:43:16;4.10;99.90
38798;SHT11;24546;52.240;16.826;2023-04-03T06:48:17;4.40;99.90
38798;SHT11;24546;52.240;16.826;2023-04-03T06:53:18;4.90;99.90
38798;SHT11;24546;52.240;16.826;2023-04-03T06:58:19;4.30;99.90
38798;SHT11;24546;52.240;16.826;2023-04-03T07:03:20;4.70;99.90
38798;SHT11;24546;52.240;16.826;2023-04-03T07:08:20;5.10;99.90
38798;SHT11;24546;52.240;16.826;2023-04-03T07:13:23;5.30;99.90
38798;SHT11;24546;52.240;16.826;2023-04-03T07:18:24;5.30;99.70
38798;SHT11;24546;52.240;16.826;2023-04-03T07:23:25;4.90;99.90
38798;SHT11;24546;52.240;16.826;2023-04-03T07:28:26;4.90;99.90
38798;SHT11;24546;52.240;16.826;2023-04-03T07:33:27;5.10;99.90
38798;SHT11;24546;52.240;16.826;2023-04-03T07:38:28;5.10;99.80
38798;SHT11;24546;52.240;16.826;2023-04-03T07:43:29;5.20;99.90
38798;SHT11;24546;52.240;16.826;2023-04-03T07:48:30;4.90;99.30
38798;SHT11;24546;52.240;16.826;2023-04-03T07:53:31;4.80;99.60
38798;SHT11;24546;52.240;16.826;2023-04-03T07:58:32;4.60;98.60
38798;SHT11;24546;52.240;16.826;2023-04-03T08:03:33;4.50;98.10
38798;SHT11;24546;52.240;16.826;2023-04-03T08:08:34;4.90;97.00
38798;SHT11;24546;52.240;16.826;2023-04-03T08:13:35;5.00;96.70
38798;SHT11;24546;52.240;16.826;2023-04-03T08:18:36;6.00;94.10
38798;SHT11;24546;52.240;16.826;2023-04-03T08:23:38;6.30;93.50
38798;SHT11;24546;52.240;16.826;2023-04-03T08:28:49;6.50;93.80
38798;SHT11;24546;52.240;16.826;2023-04-03T08:40:16;5.70;93.20
38798;SHT11;24546;52.240;16.826;2023-04-03T08:51:09;5.50;93.30
38798;SHT11;24546;52.240;16.826;2023-04-03T08:56:15;5.40;92.80
38798;SHT11;24546;52.240;16.826;2023-04-03T09:01:20;5.30;93.90
38798;SHT11;24546;52.240;16.826;2023-04-03T09:06:29;6.10;93.70
38798;SHT11;24546;52.240;16.826;2023-04-03T09:16:39;6.10;92.00
38798;SHT11;24546;52.240;16.826;2023-04-03T09:21:43;5.60;92.90
38798;SHT11;24546;52.240;16.826;2023-04-03T09:32:11;7.90;91.70
38798;SHT11;24546;52.240;16.826;2023-04-03T09:37:33;8.60;90.10
38798;SHT11;24546;52.240;16.826;2023-04-03T09:42:34;8.20;89.10
38798;SHT11;24546;52.240;16.826;2023-04-03T09:47:40;8.60;89.40
38798;SHT11;24546;52.240;16.826;2023-04-03T09:52:43;8.20;87.50
38798;SHT11;24546;52.240;16.826;2023-04-03T09:57:45;7.40;90.30
38798;SHT11;24546;52.240;16.826;2023-04-03T10:02:48;6.90;89.90
38798;SHT11;24546;52.240;16.826;2023-04-03T10:07:50;6.70;89.70
38798;SHT11;24546;52.240;16.826;2023-04-03T10:13:09;7.20;88.70
38798;SHT11;24546;52.240;16.826;2023-04-03T10:18:19;8.40;87.80
38798;SHT11;24546;52.240;16.826;2023-04-03T10:23:25;9.10;86.70
38798;SHT11;24546;52.240;16.826;2023-04-03T10:28:31;9.00;86.50
38798;SHT11;24546;52.240;16.826;2023-04-03T10:33:37;8.60;85.00
38798;SHT11;24546;52.240;16.826;2023-04-03T10:53:52;9.00;82.00
38798;SHT11;24546;52.240;16.826;2023-04-03T11:04:04;9.70;81.10
38798;SHT11;24546;52.240;16.826;2023-04-03T11:14:28;8.50;83.30
38798;SHT11;24546;52.240;16.826;2023-04-03T11:19:35;8.20;83.20
38798;SHT11;24546;52.240;16.826;2023-04-03T11:24:37;8.80;80.80
38798;SHT11;24546;52.240;16.826;2023-04-03T11:29:40;8.90;82.90
38798;SHT11;24546;52.240;16.826;2023-04-03T11:34:45;9.70;79.60
38798;SHT11;24546;52.240;16.826;2023-04-03T11:40:00;9.50;79.30
38798;SHT11;24546;52.240;16.826;2023-04-03T11:45:17;8.70;80.40
38798;SHT11;24546;52.240;16.826;2023-04-03T12:11:35;7.50;80.80
38798;SHT11;24546;52.240;16.826;2023-04-03T12:47:45;8.50;79.70
38798;SHT11;24546;52.240;16.826;2023-04-03T12:53:02;9.40;82.50
38798;SHT11;24546;52.240;16.826;2023-04-03T12:58:21;9.90;79.10
38798;SHT11;24546;52.240;16.826;2023-04-03T13:03:23;10.30;77.80
38798;SHT11;24546;52.240;16.826;2023-04-03T13:08:25;10.10;74.80
38798;SHT11;24546;52.240;16.826;2023-04-03T13:13:26;9.10;75.90
38798;SHT11;24546;52.240;16.826;2023-04-03T13:18:29;9.40;79.50
38798;SHT11;24546;52.240;16.826;2023-04-03T13:23:30;9.60;76.30
38798;SHT11;24546;52.240;16.826;2023-04-03T13:28:32;8.70;75.90
38798;SHT11;24546;52.240;16.826;2023-04-03T13:33:34;8.20;76.90
38798;SHT11;24546;52.240;16.826;2023-04-03T13:38:38;8.90;79.80
38798;SHT11;24546;52.240;16.826;2023-04-03T13:43:39;8.70;76.70
38798;SHT11;24546;52.240;16.826;2023-04-03T13:48:41;8.50;77.40
38798;SHT11;24546;52.240;16.826;2023-04-03T13:53:44;9.20;77.50
38798;SHT11;24546;52.240;16.826;2023-04-03T13:58:56;8.60;75.70
38798;SHT11;24546;52.240;16.826;2023-04-03T14:03:58;8.20;78.00
38798;SHT11;24546;52.240;16.826;2023-04-03T14:09:00;8.40;78.80
38798;SHT11;24546;52.240;16.826;2023-04-03T14:14:02;8.80;79.00
38798;SHT11;24546;52.240;16.826;2023-04-03T14:19:05;8.90;77.30
38798;SHT11;24546;52.240;16.826;2023-04-03T14:24:06;8.60;79.20
38798;SHT11;24546;52.240;16.826;2023-04-03T14:29:09;8.00;77.40
38798;SHT11;24546;52.240;16.826;2023-04-03T14:34:11;7.80;78.90
38798;SHT11;24546;52.240;16.826;2023-04-03T14:39:18;7.80;78.40
38798;SHT11;24546;52.240;16.826;2023-04-03T14:44:19;7.70;78.70
38798;SHT11;24546;52.240;16.826;2023-04-03T14:49:21;7.80;79.90
38798;SHT11;24546;52.240;16.826;2023-04-03T14:54:23;7.50;76.80
38798;SHT11;24546;52.240;16.826;2023-04-03T14:59:28;7.30;77.80
38798;SHT11;24546;52.240;16.826;2023-04-03T15:04:32;7.60;77.00
38798;SHT11;24546;52.240;16.826;2023-04-03T15:09:34;8.00;80.20
38798;SHT11;24546;52.240;16.826;2023-04-03T15:14:36;8.00;79.40
38798;SHT11;24546;52.240;16.826;2023-04-03T15:19:37;7.30;78.30
38798;SHT11;24546;52.240;16.826;2023-04-03T15:24:38;7.70;78.20
38798;SHT11;24546;52.240;16.826;2023-04-03T15:29:40;7.50;77.80
38798;SHT11;24546;52.240;16.826;2023-04-03T15:34:41;7.10;79.10
38798;SHT11;24546;52.240;16.826;2023-04-03T15:39:42;7.70;78.90
38798;SHT11;24546;52.240;16.826;2023-04-03T15:44:43;7.40;76.90
38798;SHT11;24546;52.240;16.826;2023-04-03T15:49:44;7.20;77.80
38798;SHT11;24546;52.240;16.826;2023-04-03T15:54:45;6.80;78.20
38798;SHT11;24546;52.240;16.826;2023-04-03T15:59:46;6.50;78.40
38798;SHT11;24546;52.240;16.826;2023-04-03T16:04:47;7.10;80.20
38798;SHT11;24546;52.240;16.826;2023-04-03T16:09:47;7.00;79.30
38798;SHT11;24546;52.240;16.826;2023-04-03T16:14:48;7.20;79.60
38798;SHT11;24546;52.240;16.826;2023-04-03T16:19:50;7.10;77.40
38798;SHT11;24546;52.240;16.826;2023-04-03T16:24:50;6.90;79.90
38798;SHT11;24546;52.240;16.826;2023-04-03T16:29:51;6.90;80.80
38798;SHT11;24546;52.240;16.826;2023-04-03T16:34:52;6.80;80.20
38798;SHT11;24546;52.240;16.826;2023-04-03T16:39:53;6.60;79.90
38798;SHT11;24546;52.240;16.826;2023-04-03T16:44:54;6.70;80.70
38798;SHT11;24546;52.240;16.826;2023-04-03T16:49:55;6.70;81.30
38798;SHT11;24546;52.240;16.826;2023-04-03T16:54:56;6.50;82.00
38798;SHT11;24546;52.240;16.826;2023-04-03T16:59:59;6.40;80.10
38798;SHT11;24546;52.240;16.826;2023-04-03T17:05:00;6.20;78.50
38798;SHT11;24546;52.240;16.826;2023-04-03T17:10:00;6.10;78.50
38798;SHT11;24546;52.240;16.826;2023-04-03T17:15:02;6.40;79.10
38798;SHT11;24546;52.240;16.826;2023-04-03T17:20:03;5.90;79.50
38798;SHT11;24546;52.240;16.826;2023-04-03T17:25:04;5.70;79.20
38798;SHT11;24546;52.240;16.826;2023-04-03T17:30:05;5.70;80.10
38798;SHT11;24546;52.240;16.826;2023-04-03T17:35:07;5.90;79.60
38798;SHT11;24546;52.240;16.826;2023-04-03T17:40:08;6.00;79.10
38798;SHT11;24546;52.240;16.826;2023-04-03T17:45:09;6.00;80.50
38798;SHT11;24546;52.240;16.826;2023-04-03T17:50:10;6.10;80.30
38798;SHT11;24546;52.240;16.826;2023-04-03T17:55:10;6.10;80.60
38798;SHT11;24546;52.240;16.826;2023-04-03T18:00:13;5.90;82.10
38798;SHT11;24546;52.240;16.826;2023-04-03T18:05:15;6.20;81.10
38798;SHT11;24546;52.240;16.826;2023-04-03T18:10:16;6.00;82.30
38798;SHT11;24546;52.240;16.826;2023-04-03T18:15:17;6.20;83.10
38798;SHT11;24546;52.240;16.826;2023-04-03T18:20:18;5.90;83.70
38798;SHT11;24546;52.240;16.826;2023-04-03T18:25:19;6.00;83.30
38798;SHT11;24546;52.240;16.826;2023-04-03T18:30:20;6.30;84.50
38798;SHT11;24546;52.240;16.826;2023-04-03T18:35:22;6.30;84.90
38798;SHT11;24546;52.240;16.826;2023-04-03T18:40:23;6.40;85.10
38798;SHT11;24546;52.240;16.826;2023-04-03T18:45:24;5.50;85.90
38798;SHT11;24546;52.240;16.826;2023-04-03T18:50:24;5.40;86.80
38798;SHT11;24546;52.240;16.826;2023-04-03T18:55:25;5.30;88.20
38798;SHT11;24546;52.240;16.826;2023-04-03T19:00:26;5.40;88.10
38798;SHT11;24546;52.240;16.826;2023-04-03T19:05:27;5.40;88.10
38798;SHT11;24546;52.240;16.826;2023-04-03T19:10:29;5.40;88.20
38798;SHT11;24546;52.240;16.826;2023-04-03T19:15:29;5.30;88.30
38798;SHT11;24546;52.240;16.826;2023-04-03T19:20:31;5.40;89.80
38798;SHT11;24546;52.240;16.826;2023-04-03T19:25:32;5.30;89.00
38798;SHT11;24546;52.240;16.826;2023-04-03T19:30:33;5.30;89.70
38798;SHT11;24546;52.240;16.826;2023-04-03T19:35:33;5.60;90.10
38798;SHT11;24546;52.240;16.826;2023-04-03T19:40:34;5.30;90.30
38798;SHT11;24546;52.240;16.826;2023-04-03T19:45:37;5.50;90.10
38798;SHT11;24546;52.240;16.826;2023-04-03T19:50:39;5.30;90.90
38798;SHT11;24546;52.240;16.826;2023-04-03T19:55:40;5.00;90.40
38798;SHT11;24546;52.240;16.826;2023-04-03T20:00:41;5.00;91.00
38798;SHT11;24546;52.240;16.826;2023-04-03T20:05:42;5.00;91.30
38798;SHT11;24546;52.240;16.826;2023-04-03T20:10:42;4.90;91.40
38798;SHT11;24546;52.240;16.826;2023-04-03T20:15:43;4.70;91.90
38798;SHT11;24546;52.240;16.826;2023-04-03T20:20:54;4.90;92.00
38798;SHT11;24546;52.240;16.826;2023-04-03T20:25:56;4.80;92.50
38798;SHT11;24546;52.240;16.826;2023-04-03T20:30:57;4.80;92.20
38798;SHT11;24546;52.240;16.826;2023-04-03T20:35:58;4.60;92.60
38798;SHT11;24546;52.240;16.826;2023-04-03T20:41:01;4.40;92.90
38798;SHT11;24546;52.240;16.826;2023-04-03T20:46:01;4.60;92.70
38798;SHT11;24546;52.240;16.826;2023-04-03T20:51:12;4.60;92.40
38798;SHT11;24546;52.240;16.826;2023-04-03T20:56:13;4.80;92.40
38798;SHT11;24546;52.240;16.826;2023-04-03T21:01:18;4.60;92.90
38798;SHT11;24546;52.240;16.826;2023-04-03T21:22:02;4.40;93.40
38798;SHT11;24546;52.240;16.826;2023-04-03T21:27:03;4.60;93.20
38798;SHT11;24546;52.240;16.826;2023-04-03T21:32:04;4.50;93.30
38798;SHT11;24546;52.240;16.826;2023-04-03T21:37:05;4.40;93.40
38798;SHT11;24546;52.240;16.826;2023-04-03T21:42:07;4.50;93.60
38798;SHT11;24546;52.240;16.826;2023-04-03T21:47:08;4.40;93.50
38798;SHT11;24546;52.240;16.826;2023-04-03T21:52:08;4.10;94.50
38798;SHT11;24546;52.240;16.826;2023-04-03T21:57:09;4.20;94.30
38798;SHT11;24546;52.240;16.826;2023-04-03T22:02:11;4.30;94.40
38798;SHT11;24546;52.240;16.826;2023-04-03T22:07:12;4.20;94.60
38798;SHT11;24546;52.240;16.826;2023-04-03T22:12:13;4.20;94.40
38798;SHT11;24546;52.240;16.826;2023-04-03T22:17:15;4.00;94.40
38798;SHT11;24546;52.240;16.826;2023-04-03T22:22:16;3.70;94.80
38798;SHT11;24546;52.240;16.826;2023-04-03T22:27:18;3.70;94.60
38798;SHT11;24546;52.240;16.826;2023-04-03T22:32:19;3.20;94.70
38798;SHT11;24546;52.240;16.826;2023-04-03T22:37:20;3.30;94.50
38798;SHT11;24546;52.240;16.826;2023-04-03T22:42:21;3.50;95.10
38798;SHT11;24546;52.240;16.826;2023-04-03T22:47:22;3.50;94.10
38798;SHT11;24546;52.240;16.826;2023-04-03T22:52:23;3.20;94.40
38798;SHT11;24546;52.240;16.826;2023-04-03T22:57:23;3.40;94.40
38798;SHT11;24546;52.240;16.826;2023-04-03T23:02:24;3.60;93.30
38798;SHT11;24546;52.240;16.826;2023-04-03T23:07:25;3.60;93.20
38798;SHT11;24546;52.240;16.826;2023-04-03T23:12:25;3.20;93.50
38798;SHT11;24546;52.240;16.826;2023-04-03T23:17:26;3.30;93.50
38798;SHT11;24546;52.240;16.826;2023-04-03T23:22:27;3.30;93.60
38798;SHT11;24546;52.240;16.826;2023-04-03T23:27:28;3.10;93.20
38798;SHT11;24546;52.240;16.826;2023-04-03T23:32:29;3.00;93.60
38798;SHT11;24546;52.240;16.826;2023-04-03T23:37:30;2.90;93.50
38798;SHT11;24546;52.240;16.826;2023-04-03T23:42:31;2.70;93.60
38798;SHT11;24546;52.240;16.826;2023-04-03T23:47:32;2.50;93.80
38798;SHT11;24546;52.240;16.826;2023-04-03T23:52:32;2.80;93.60
38798;SHT11;24546;52.240;16.826;2023-04-03T23:57:33;2.90;94.70
